createdAt,value
2024-02-01T00:00:18.637Z,-0.01
2024-02-01T00:00:50.962Z,0.02
2024-02-01T00:01:23.497Z,0.02
2024-02-01T00:01:55.493Z,0.03
2024-02-01T00:02:27.689Z,-0.01
2024-02-01T00:02:59.855Z,-0.05
2024-02-01T00:03:32.064Z,-0.01
2024-02-01T00:04:04.440Z,0.01
2024-02-01T00:04:36.509Z,0.04
2024-02-01T00:05:09.522Z,0.05
2024-02-01T00:05:41.876Z,0.06
2024-02-01T00:06:14.147Z,0.01
2024-02-01T00:06:46.217Z,-0.01
2024-02-01T00:07:18.275Z,-0.05
2024-02-01T00:07:50.419Z,-0.06
2024-02-01T00:08:22.646Z,-0.13
2024-02-01T00:08:54.764Z,-0.12
2024-02-01T00:09:27.324Z,-0.17
2024-02-01T00:10:00.845Z,-0.19
2024-02-01T00:10:33.929Z,-0.16
2024-02-01T00:11:06.471Z,-0.15
2024-02-01T00:11:38.512Z,-0.22
2024-02-01T00:12:10.664Z,-0.23
2024-02-01T00:12:42.759Z,-0.27
2024-02-01T00:13:14.952Z,-0.28
2024-02-01T00:13:46.924Z,-0.28
2024-02-01T00:14:19.028Z,-0.25
2024-02-01T00:14:51.181Z,-0.25
2024-02-01T00:15:23.357Z,-0.22
2024-02-01T00:15:55.536Z,-0.21
2024-02-01T00:16:27.585Z,-0.13
2024-02-01T00:16:59.667Z,-0.10
2024-02-01T00:17:31.868Z,-0.09
2024-02-01T00:18:04.772Z,-0.07
2024-02-01T00:18:37.088Z,-0.06
2024-02-01T00:19:09.285Z,-0.04
2024-02-01T00:19:41.456Z,-0.04
2024-02-01T00:20:14.001Z,0.00
2024-02-01T00:20:46.080Z,0.04
2024-02-01T00:21:18.884Z,0.08
2024-02-01T00:21:51.109Z,0.09
2024-02-01T00:22:30.453Z,0.08
2024-02-01T00:23:06.130Z,0.03
2024-02-01T00:23:38.191Z,-0.01
2024-02-01T00:24:10.367Z,-0.01
2024-02-01T00:24:42.444Z,0.06
2024-02-01T00:25:16.174Z,0.09
2024-02-01T00:25:48.167Z,0.13
2024-02-01T00:26:20.202Z,0.12
2024-02-01T00:26:52.359Z,0.08
2024-02-01T00:27:24.399Z,0.08
2024-02-01T00:27:57.833Z,0.07
2024-02-01T00:28:31.549Z,0.06
2024-02-01T00:29:03.918Z,0.00
2024-02-01T00:29:36.056Z,-0.03
2024-02-01T00:30:09.039Z,-0.10
2024-02-01T00:30:41.077Z,-0.12
2024-02-01T00:31:13.180Z,-0.06
2024-02-01T00:31:45.291Z,-0.02
2024-02-01T00:32:17.437Z,0.00
2024-02-01T00:32:49.501Z,-0.05
2024-02-01T00:33:21.828Z,-0.11
2024-02-01T00:33:54.797Z,-0.12
2024-02-01T00:34:26.939Z,-0.05
2024-02-01T00:34:59.136Z,0.00
2024-02-01T00:35:31.222Z,0.06
2024-02-01T00:36:03.627Z,0.08
2024-02-01T00:36:36.152Z,0.08
2024-02-01T00:37:08.200Z,0.13
2024-02-01T00:37:40.241Z,0.14
2024-02-01T00:38:12.276Z,0.13
2024-02-01T00:38:44.374Z,0.12
2024-02-01T00:39:16.540Z,0.10
2024-02-01T00:39:48.572Z,0.11
2024-02-01T00:40:22.174Z,0.14
2024-02-01T00:40:54.232Z,0.16
2024-02-01T00:41:26.381Z,0.16
2024-02-01T00:41:58.639Z,0.16
2024-02-01T00:42:30.871Z,0.20
2024-02-01T00:43:03.046Z,0.23
2024-02-01T00:43:35.030Z,0.21
2024-02-01T00:44:07.135Z,0.20
2024-02-01T00:44:39.368Z,0.22
2024-02-01T00:45:11.481Z,0.23
2024-02-01T00:45:43.609Z,0.27
2024-02-01T00:46:15.658Z,0.26
2024-02-01T00:46:47.846Z,0.24
2024-02-01T00:47:19.933Z,0.18
2024-02-01T00:47:52.113Z,0.08
2024-02-01T00:48:24.359Z,0.03
2024-02-01T00:48:56.835Z,-0.02
2024-02-01T00:49:29.327Z,0.00
2024-02-01T00:50:02.034Z,-0.01
2024-02-01T00:50:34.142Z,0.02
2024-02-01T00:51:06.210Z,0.04
2024-02-01T00:51:38.265Z,0.03
2024-02-01T00:52:12.731Z,0.00
2024-02-01T00:52:45.933Z,-0.03
2024-02-01T00:53:18.077Z,0.00
2024-02-01T00:53:50.256Z,-0.03
2024-02-01T00:54:22.325Z,0.00
2024-02-01T00:54:54.337Z,0.07
2024-02-01T00:55:27.855Z,0.12
2024-02-01T00:55:59.984Z,0.16
2024-02-01T00:56:32.037Z,0.21
2024-02-01T00:57:04.808Z,0.21
2024-02-01T00:57:36.950Z,0.25
2024-02-01T00:58:09.024Z,0.25
2024-02-01T00:58:41.063Z,0.24
2024-02-01T00:59:13.147Z,0.23
2024-02-01T00:59:45.298Z,0.25
2024-02-01T01:00:17.962Z,0.24
2024-02-01T01:00:50.248Z,0.25
2024-02-01T01:01:22.493Z,0.24
2024-02-01T01:01:54.586Z,0.23
2024-02-01T01:02:26.752Z,0.23
2024-02-01T01:02:58.849Z,0.24
2024-02-01T01:03:30.900Z,0.25
2024-02-01T01:04:03.092Z,0.25
2024-02-01T01:04:35.136Z,0.23
2024-02-01T01:05:08.195Z,0.24
2024-02-01T01:05:40.221Z,0.21
2024-02-01T01:06:12.653Z,0.11
2024-02-01T01:06:44.820Z,0.02
2024-02-01T01:07:16.917Z,-0.01
2024-02-01T01:07:48.960Z,-0.01
2024-02-01T01:08:21.106Z,0.05
2024-02-01T01:08:53.427Z,0.10
2024-02-01T01:09:25.424Z,0.14
2024-02-01T01:09:57.634Z,0.14
2024-02-01T01:10:31.038Z,0.18
2024-02-01T01:11:03.291Z,0.21
2024-02-01T01:11:35.505Z,0.23
2024-02-01T01:12:08.120Z,0.25
2024-02-01T01:12:40.192Z,0.26
2024-02-01T01:13:12.302Z,0.26
2024-02-01T01:13:44.547Z,0.26
2024-02-01T01:14:16.576Z,0.25
2024-02-01T01:14:49.357Z,0.24
2024-02-01T01:15:21.418Z,0.25
2024-02-01T01:15:53.538Z,0.29
2024-02-01T01:16:27.091Z,0.31
2024-02-01T01:16:59.062Z,0.32
2024-02-01T01:17:31.236Z,0.33
2024-02-01T01:18:03.565Z,0.36
2024-02-01T01:18:36.478Z,0.36
2024-02-01T01:19:08.690Z,0.37
2024-02-01T01:19:40.944Z,0.36
2024-02-01T01:20:14.583Z,0.32
2024-02-01T01:20:47.440Z,0.25
2024-02-01T01:21:19.603Z,0.20
2024-02-01T01:21:51.645Z,0.15
2024-02-01T01:22:23.722Z,0.22
2024-02-01T01:22:55.717Z,0.27
2024-02-01T01:23:27.955Z,0.32
2024-02-01T01:23:59.960Z,0.37
2024-02-01T01:24:32.070Z,0.39
2024-02-01T01:25:04.825Z,0.40
2024-02-01T01:25:38.272Z,0.39
2024-02-01T01:26:10.352Z,0.33
2024-02-01T01:26:42.532Z,0.30
2024-02-01T01:27:14.678Z,0.35
2024-02-01T01:27:46.832Z,0.40
2024-02-01T01:28:18.909Z,0.44
2024-02-01T01:28:51.001Z,0.49
2024-02-01T01:29:23.127Z,0.51
2024-02-01T01:29:55.241Z,0.49
2024-02-01T01:30:27.247Z,0.41
2024-02-01T01:30:59.414Z,0.39
2024-02-01T01:31:31.549Z,0.34
2024-02-01T01:32:03.890Z,0.38
2024-02-01T01:32:36.114Z,0.45
2024-02-01T01:33:08.414Z,0.48
2024-02-01T01:33:40.689Z,0.47
2024-02-01T01:34:12.902Z,0.43
2024-02-01T01:34:45.142Z,0.42
2024-02-01T01:35:17.580Z,0.44
2024-02-01T01:35:49.635Z,0.42
2024-02-01T01:36:21.710Z,0.45
2024-02-01T01:36:53.760Z,0.46
2024-02-01T01:37:25.753Z,0.47
2024-02-01T01:37:57.786Z,0.46
2024-02-01T01:38:29.983Z,0.43
2024-02-01T01:39:02.134Z,0.39
2024-02-01T01:39:34.291Z,0.41
2024-02-01T01:40:07.587Z,0.40
2024-02-01T01:40:41.121Z,0.43
2024-02-01T01:41:13.181Z,0.42
2024-02-01T01:41:45.754Z,0.41
2024-02-01T01:42:17.853Z,0.40
2024-02-01T01:42:50.031Z,0.39
2024-02-01T01:43:22.203Z,0.35
2024-02-01T01:43:54.226Z,0.42
2024-02-01T01:44:26.287Z,0.44
2024-02-01T01:44:58.309Z,0.45
2024-02-01T01:45:30.313Z,0.43
2024-02-01T01:46:03.743Z,0.46
2024-02-01T01:46:35.977Z,0.46
2024-02-01T01:47:08.077Z,0.49
2024-02-01T01:47:40.935Z,0.50
2024-02-01T01:48:13.444Z,0.48
2024-02-01T01:48:45.865Z,0.43
2024-02-01T01:49:19.499Z,0.41
2024-02-01T01:49:51.790Z,0.40
2024-02-01T01:50:24.250Z,0.41
2024-02-01T01:50:57.010Z,0.42
2024-02-01T01:51:29.163Z,0.41
2024-02-01T01:52:01.802Z,0.35
2024-02-01T01:52:37.353Z,0.20
2024-02-01T01:53:10.028Z,0.15
2024-02-01T01:53:43.482Z,0.12
2024-02-01T01:54:17.554Z,0.14
2024-02-01T01:54:50.905Z,0.18
2024-02-01T01:55:23.823Z,0.25
2024-02-01T01:55:58.640Z,0.28
2024-02-01T01:56:30.805Z,0.29
2024-02-01T01:57:04.558Z,0.27
2024-02-01T01:57:37.190Z,0.25
2024-02-01T01:58:09.420Z,0.23
2024-02-01T01:58:42.685Z,0.23
2024-02-01T01:59:17.123Z,0.23
2024-02-01T01:59:49.548Z,0.17
2024-02-01T02:00:22.778Z,0.14
2024-02-01T02:00:55.876Z,0.10
2024-02-01T02:01:28.567Z,0.11
2024-02-01T02:02:01.317Z,0.10
2024-02-01T02:02:33.836Z,0.13
2024-02-01T02:03:06.036Z,0.12
2024-02-01T02:03:39.138Z,0.05
2024-02-01T02:04:14.602Z,0.02
2024-02-01T02:04:46.741Z,0.03
2024-02-01T02:05:18.815Z,0.05
2024-02-01T02:05:51.261Z,0.07
2024-02-01T02:06:23.772Z,0.07
2024-02-01T02:06:56.003Z,0.07
2024-02-01T02:07:28.125Z,0.03
2024-02-01T02:08:00.151Z,-0.01
2024-02-01T02:08:32.216Z,-0.01
2024-02-01T02:09:04.619Z,-0.02
2024-02-01T02:09:37.105Z,-0.10
2024-02-01T02:10:09.742Z,-0.17
2024-02-01T02:10:42.099Z,-0.20
2024-02-01T02:11:16.279Z,-0.17
2024-02-01T02:11:48.753Z,-0.18
2024-02-01T02:12:20.807Z,-0.16
2024-02-01T02:12:52.855Z,-0.17
2024-02-01T02:13:24.915Z,-0.19
2024-02-01T02:13:56.965Z,-0.25
2024-02-01T02:14:29.131Z,-0.28
2024-02-01T02:15:03.741Z,-0.31
2024-02-01T02:15:36.382Z,-0.41
2024-02-01T02:16:08.377Z,-0.42
2024-02-01T02:16:40.450Z,-0.46
2024-02-01T02:17:12.552Z,-0.50
2024-02-01T02:17:44.719Z,-0.52
2024-02-01T02:18:16.966Z,-0.53
2024-02-01T02:18:49.599Z,-0.54
2024-02-01T02:19:22.155Z,-0.56
2024-02-01T02:19:55.164Z,-0.58
2024-02-01T02:20:29.242Z,-0.62
2024-02-01T02:21:02.883Z,-0.65
2024-02-01T02:21:35.093Z,-0.68
2024-02-01T02:22:08.560Z,-0.69
2024-02-01T02:22:40.759Z,-0.71
2024-02-01T02:23:13.782Z,-0.70
2024-02-01T02:23:46.541Z,-0.69
2024-02-01T02:24:19.972Z,-0.71
2024-02-01T02:24:52.072Z,-0.76
2024-02-01T02:25:24.050Z,-0.79
2024-02-01T02:25:56.135Z,-0.79
2024-02-01T02:26:28.244Z,-0.79
2024-02-01T02:27:04.522Z,-0.78
2024-02-01T02:27:36.705Z,-0.77
2024-02-01T02:28:08.844Z,-0.82
2024-02-01T02:28:40.968Z,-0.82
2024-02-01T02:29:13.510Z,-0.80
2024-02-01T02:29:45.580Z,-0.81
2024-02-01T02:30:17.817Z,-0.79
2024-02-01T02:30:49.881Z,-0.78
2024-02-01T02:31:22.186Z,-0.74
2024-02-01T02:31:54.252Z,-0.73
2024-02-01T02:32:26.364Z,-0.68
2024-02-01T02:32:58.557Z,-0.64
2024-02-01T02:33:30.967Z,-0.66
2024-02-01T02:34:03.650Z,-0.66
2024-02-01T02:34:35.811Z,-0.70
2024-02-01T02:35:11.103Z,-0.65
2024-02-01T02:35:43.216Z,-0.66
2024-02-01T02:36:15.654Z,-0.63
2024-02-01T02:36:47.767Z,-0.60
2024-02-01T02:37:21.355Z,-0.58
2024-02-01T02:37:53.627Z,-0.56
2024-02-01T02:38:26.183Z,-0.55
2024-02-01T02:38:58.324Z,-0.56
2024-02-01T02:39:40.644Z,-0.52
2024-02-01T02:40:14.045Z,-0.56
2024-02-01T02:40:46.210Z,-0.58
2024-02-01T02:41:18.328Z,-0.59
2024-02-01T02:41:50.492Z,-0.55
2024-02-01T02:42:22.593Z,-0.51
2024-02-01T02:42:54.852Z,-0.48
2024-02-01T02:43:26.923Z,-0.48
2024-02-01T02:43:59.046Z,-0.45
2024-02-01T02:44:31.135Z,-0.50
2024-02-01T02:45:03.516Z,-0.51
2024-02-01T02:45:35.726Z,-0.45
2024-02-01T02:46:07.721Z,-0.43
2024-02-01T02:46:40.340Z,-0.43
2024-02-01T02:47:12.556Z,-0.40
2024-02-01T02:47:45.758Z,-0.41
2024-02-01T02:48:18.033Z,-0.43
2024-02-01T02:48:50.290Z,-0.41
2024-02-01T02:49:22.572Z,-0.38
2024-02-01T02:49:54.704Z,-0.38
2024-02-01T02:50:27.108Z,-0.41
2024-02-01T02:50:59.243Z,-0.38
2024-02-01T02:51:31.666Z,-0.39
2024-02-01T02:52:04.000Z,-0.38
2024-02-01T02:52:38.354Z,-0.36
2024-02-01T02:53:10.354Z,-0.39
2024-02-01T02:53:42.702Z,-0.42
2024-02-01T02:54:14.824Z,-0.42
2024-02-01T02:54:46.969Z,-0.42
2024-02-01T02:55:19.286Z,-0.41
2024-02-01T02:55:51.335Z,-0.41
2024-02-01T02:56:23.873Z,-0.43
2024-02-01T02:56:56.060Z,-0.45
2024-02-01T02:57:28.082Z,-0.45
2024-02-01T02:58:00.217Z,-0.48
2024-02-01T02:58:32.289Z,-0.48
2024-02-01T02:59:04.480Z,-0.47
2024-02-01T02:59:38.134Z,-0.44
2024-02-01T03:00:12.115Z,-0.47
2024-02-01T03:00:44.420Z,-0.42
2024-02-01T03:01:16.571Z,-0.44
2024-02-01T03:01:48.666Z,-0.47
2024-02-01T03:02:20.705Z,-0.49
2024-02-01T03:02:52.939Z,-0.50
2024-02-01T03:03:25.067Z,-0.48
2024-02-01T03:03:57.209Z,-0.43
2024-02-01T03:04:29.388Z,-0.38
2024-02-01T03:05:01.589Z,-0.38
2024-02-01T03:05:33.789Z,-0.38
2024-02-01T03:06:05.906Z,-0.37
2024-02-01T03:06:38.208Z,-0.36
2024-02-01T03:07:10.512Z,-0.39
2024-02-01T03:07:44.071Z,-0.40
2024-02-01T03:08:16.108Z,-0.48
2024-02-01T03:08:48.218Z,-0.49
2024-02-01T03:09:20.326Z,-0.51
2024-02-01T03:09:52.347Z,-0.49
2024-02-01T03:10:24.534Z,-0.45
2024-02-01T03:10:56.562Z,-0.41
2024-02-01T03:11:28.790Z,-0.32
2024-02-01T03:12:00.933Z,-0.26
2024-02-01T03:12:33.287Z,-0.26
2024-02-01T03:13:05.754Z,-0.20
2024-02-01T03:13:38.093Z,-0.16
2024-02-01T03:14:10.231Z,-0.18
2024-02-01T03:14:43.659Z,-0.26
2024-02-01T03:15:16.043Z,-0.19
2024-02-01T03:15:48.269Z,-0.17
2024-02-01T03:16:22.042Z,-0.13
2024-02-01T03:16:54.069Z,-0.11
2024-02-01T03:17:26.070Z,-0.10
2024-02-01T03:17:58.210Z,-0.11
2024-02-01T03:18:30.507Z,-0.09
2024-02-01T03:19:02.936Z,-0.08
2024-02-01T03:19:35.824Z,-0.09
2024-02-01T03:20:09.893Z,-0.18
2024-02-01T03:20:41.950Z,-0.13
2024-02-01T03:21:15.128Z,-0.14
2024-02-01T03:21:47.245Z,-0.08
2024-02-01T03:22:19.694Z,-0.05
2024-02-01T03:22:53.047Z,-0.04
2024-02-01T03:23:25.086Z,0.00
2024-02-01T03:23:57.177Z,-0.01
2024-02-01T03:24:29.409Z,-0.03
2024-02-01T03:25:01.835Z,-0.03
2024-02-01T03:25:34.044Z,-0.03
2024-02-01T03:26:06.171Z,-0.07
2024-02-01T03:26:38.258Z,-0.13
2024-02-01T03:27:10.360Z,-0.16
2024-02-01T03:27:42.452Z,-0.17
2024-02-01T03:28:14.479Z,-0.23
2024-02-01T03:28:46.562Z,-0.31
2024-02-01T03:29:18.836Z,-0.30
2024-02-01T03:29:50.969Z,-0.27
2024-02-01T03:30:23.148Z,-0.24
2024-02-01T03:30:55.170Z,-0.26
2024-02-01T03:31:27.692Z,-0.26
2024-02-01T03:31:59.662Z,-0.30
2024-02-01T03:32:32.253Z,-0.28
2024-02-01T03:33:05.186Z,-0.29
2024-02-01T03:33:37.654Z,-0.30
2024-02-01T03:34:10.365Z,-0.34
2024-02-01T03:34:42.511Z,-0.34
2024-02-01T03:35:14.825Z,-0.36
2024-02-01T03:35:47.038Z,-0.35
2024-02-01T03:36:19.255Z,-0.35
2024-02-01T03:36:51.631Z,-0.37
2024-02-01T03:37:23.809Z,-0.38
2024-02-01T03:37:57.189Z,-0.35
2024-02-01T03:38:29.426Z,-0.32
2024-02-01T03:39:01.624Z,-0.35
2024-02-01T03:39:33.968Z,-0.32
2024-02-01T03:40:07.340Z,-0.31
2024-02-01T03:40:39.405Z,-0.34
2024-02-01T03:41:11.711Z,-0.33
2024-02-01T03:41:43.743Z,-0.32
2024-02-01T03:42:15.816Z,-0.30
2024-02-01T03:42:48.331Z,-0.30
2024-02-01T03:43:20.409Z,-0.32
2024-02-01T03:43:52.466Z,-0.33
2024-02-01T03:44:26.175Z,-0.32
2024-02-01T03:44:58.271Z,-0.33
2024-02-01T03:45:30.399Z,-0.36
2024-02-01T03:46:02.484Z,-0.36
2024-02-01T03:46:34.617Z,-0.36
2024-02-01T03:47:07.025Z,-0.43
2024-02-01T03:47:39.275Z,-0.42
2024-02-01T03:48:11.679Z,-0.44
2024-02-01T03:48:43.919Z,-0.47
2024-02-01T03:49:16.327Z,-0.48
2024-02-01T03:49:48.555Z,-0.50
2024-02-01T03:50:20.602Z,-0.48
2024-02-01T03:50:53.357Z,-0.49
2024-02-01T03:51:25.400Z,-0.52
2024-02-01T03:51:57.669Z,-0.55
2024-02-01T03:52:29.723Z,-0.55
2024-02-01T03:53:03.512Z,-0.54
2024-02-01T03:53:35.606Z,-0.54
2024-02-01T03:54:07.848Z,-0.55
2024-02-01T03:54:40.164Z,-0.55
2024-02-01T03:55:12.195Z,-0.54
2024-02-01T03:55:44.334Z,-0.57
2024-02-01T03:56:16.488Z,-0.56
2024-02-01T03:56:48.582Z,-0.59
2024-02-01T03:57:20.732Z,-0.64
2024-02-01T03:57:52.822Z,-0.66
2024-02-01T03:58:24.820Z,-0.68
2024-02-01T03:58:56.789Z,-0.74
2024-02-01T03:59:29.371Z,-0.73
2024-02-01T04:00:01.603Z,-0.76
2024-02-01T04:00:35.050Z,-0.80
2024-02-01T04:01:07.505Z,-0.82
2024-02-01T04:01:39.927Z,-0.79
2024-02-01T04:02:11.996Z,-0.81
2024-02-01T04:02:44.008Z,-0.90
2024-02-01T04:03:16.665Z,-0.95
2024-02-01T04:03:49.098Z,-0.97
2024-02-01T04:04:21.387Z,-1.02
2024-02-01T04:04:53.449Z,-1.08
2024-02-01T04:05:25.851Z,-1.08
2024-02-01T04:05:57.909Z,-1.10
2024-02-01T04:06:30.162Z,-1.14
2024-02-01T04:07:02.451Z,-1.20
2024-02-01T04:07:34.469Z,-1.20
2024-02-01T04:08:08.777Z,-1.19
2024-02-01T04:08:40.854Z,-1.22
2024-02-01T04:09:13.472Z,-1.28
2024-02-01T04:09:48.059Z,-1.31
2024-02-01T04:10:21.022Z,-1.33
2024-02-01T04:10:53.024Z,-1.42
2024-02-01T04:11:25.030Z,-1.45
2024-02-01T04:11:57.140Z,-1.50
2024-02-01T04:12:29.220Z,-1.52
2024-02-01T04:13:01.346Z,-1.52
2024-02-01T04:13:33.351Z,-1.52
2024-02-01T04:14:05.573Z,-1.52
2024-02-01T04:14:37.669Z,-1.63
2024-02-01T04:15:11.880Z,-1.65
2024-02-01T04:15:44.072Z,-1.64
2024-02-01T04:16:17.744Z,-1.61
2024-02-01T04:16:49.741Z,-1.62
2024-02-01T04:17:21.804Z,-1.63
2024-02-01T04:17:54.190Z,-1.60
2024-02-01T04:18:26.446Z,-1.61
2024-02-01T04:18:59.007Z,-1.66
2024-02-01T04:19:31.298Z,-1.70
2024-02-01T04:20:04.286Z,-1.72
2024-02-01T04:20:36.592Z,-1.73
2024-02-01T04:21:08.815Z,-1.71
2024-02-01T04:21:45.732Z,-1.68
2024-02-01T04:22:18.000Z,-1.69
2024-02-01T04:22:50.383Z,-1.74
2024-02-01T04:23:23.956Z,-1.75
2024-02-01T04:23:56.079Z,-1.74
2024-02-01T04:24:28.171Z,-1.77
2024-02-01T04:25:00.261Z,-1.78
2024-02-01T04:25:32.302Z,-1.77
2024-02-01T04:26:04.468Z,-1.73
2024-02-01T04:26:36.807Z,-1.73
2024-02-01T04:27:08.852Z,-1.69
2024-02-01T04:27:40.929Z,-1.72
2024-02-01T04:28:13.080Z,-1.72
2024-02-01T04:28:45.626Z,-1.72
2024-02-01T04:29:17.638Z,-1.72
2024-02-01T04:29:49.806Z,-1.74
2024-02-01T04:30:23.116Z,-1.72
2024-02-01T04:30:55.203Z,-1.70
2024-02-01T04:31:27.507Z,-1.72
2024-02-01T04:31:59.520Z,-1.74
2024-02-01T04:32:31.596Z,-1.73
2024-02-01T04:33:04.319Z,-1.76
2024-02-01T04:33:36.565Z,-1.74
2024-02-01T04:34:09.227Z,-1.73
2024-02-01T04:34:41.426Z,-1.76
2024-02-01T04:35:14.204Z,-1.76
2024-02-01T04:35:46.282Z,-1.74
2024-02-01T04:36:18.394Z,-1.72
2024-02-01T04:36:50.666Z,-1.74
2024-02-01T04:37:22.682Z,-1.75
2024-02-01T04:37:55.223Z,-1.71
2024-02-01T04:38:28.666Z,-1.71
2024-02-01T04:39:00.994Z,-1.68
2024-02-01T04:39:33.630Z,-1.74
2024-02-01T04:40:07.308Z,-1.73
2024-02-01T04:40:39.358Z,-1.74
2024-02-01T04:41:11.508Z,-1.73
2024-02-01T04:41:43.535Z,-1.72
2024-02-01T04:42:16.257Z,-1.69
2024-02-01T04:42:48.545Z,-1.66
2024-02-01T04:43:20.631Z,-1.61
2024-02-01T04:43:52.625Z,-1.62
2024-02-01T04:44:24.646Z,-1.61
2024-02-01T04:44:56.806Z,-1.59
2024-02-01T04:45:29.083Z,-1.58
2024-02-01T04:46:01.110Z,-1.58
2024-02-01T04:46:33.174Z,-1.58
2024-02-01T04:47:05.234Z,-1.59
2024-02-01T04:47:38.239Z,-1.57
2024-02-01T04:48:10.426Z,-1.59
2024-02-01T04:48:42.817Z,-1.60
2024-02-01T04:49:15.133Z,-1.60
2024-02-01T04:49:47.338Z,-1.57
2024-02-01T04:50:19.509Z,-1.55
2024-02-01T04:50:51.588Z,-1.56
2024-02-01T04:51:23.775Z,-1.55
2024-02-01T04:51:55.935Z,-1.55
2024-02-01T04:52:28.779Z,-1.61
2024-02-01T04:53:00.968Z,-1.59
2024-02-01T04:53:35.982Z,-1.65
2024-02-01T04:54:08.248Z,-1.62
2024-02-01T04:54:40.569Z,-1.57
2024-02-01T04:55:12.680Z,-1.54
2024-02-01T04:55:45.332Z,-1.54
2024-02-01T04:56:17.508Z,-1.51
2024-02-01T04:56:49.655Z,-1.51
2024-02-01T04:57:21.847Z,-1.50
2024-02-01T04:57:53.966Z,-1.49
2024-02-01T04:58:26.086Z,-1.49
2024-02-01T04:59:01.111Z,-1.49
2024-02-01T04:59:33.279Z,-1.53
2024-02-01T05:00:06.642Z,-1.52
2024-02-01T05:00:38.862Z,-1.51
2024-02-01T05:01:11.102Z,-1.50
2024-02-01T05:01:43.511Z,-1.43
2024-02-01T05:02:16.860Z,-1.39
2024-02-01T05:02:49.281Z,-1.37
2024-02-01T05:03:21.989Z,-1.33
2024-02-01T05:03:54.776Z,-1.31
2024-02-01T05:04:26.936Z,-1.29
2024-02-01T05:04:59.128Z,-1.27
2024-02-01T05:05:31.489Z,-1.23
2024-02-01T05:06:03.913Z,-1.20
2024-02-01T05:06:36.268Z,-1.16
2024-02-01T05:07:08.581Z,-1.17
2024-02-01T05:07:40.650Z,-1.19
2024-02-01T05:08:12.986Z,-1.23
2024-02-01T05:08:46.748Z,-1.19
2024-02-01T05:09:18.866Z,-1.16
2024-02-01T05:09:51.010Z,-1.12
2024-02-01T05:10:23.185Z,-1.06
2024-02-01T05:10:55.777Z,-1.09
2024-02-01T05:11:27.923Z,-1.08
2024-02-01T05:12:00.080Z,-1.05
2024-02-01T05:12:32.614Z,-1.01
2024-02-01T05:13:04.837Z,-0.97
2024-02-01T05:13:36.966Z,-0.96
2024-02-01T05:14:09.046Z,-0.93
2024-02-01T05:14:41.242Z,-0.90
2024-02-01T05:15:14.403Z,-0.89
2024-02-01T05:15:46.986Z,-0.88
2024-02-01T05:16:19.245Z,-0.90
2024-02-01T05:16:51.275Z,-0.85
2024-02-01T05:17:23.419Z,-0.81
2024-02-01T05:17:55.657Z,-0.77
2024-02-01T05:18:28.172Z,-0.74
2024-02-01T05:19:00.651Z,-0.80
2024-02-01T05:19:32.952Z,-0.82
2024-02-01T05:20:08.582Z,-0.83
2024-02-01T05:20:40.690Z,-0.84
2024-02-01T05:21:12.935Z,-0.83
2024-02-01T05:21:45.048Z,-0.79
2024-02-01T05:22:17.387Z,-0.79
2024-02-01T05:22:49.427Z,-0.83
2024-02-01T05:23:21.453Z,-0.86
2024-02-01T05:23:54.868Z,-0.85
2024-02-01T05:24:26.971Z,-0.80
2024-02-01T05:24:59.064Z,-0.77
2024-02-01T05:25:31.128Z,-0.78
2024-02-01T05:26:03.405Z,-0.79
2024-02-01T05:26:35.517Z,-0.76
2024-02-01T05:27:07.786Z,-0.73
2024-02-01T05:27:39.948Z,-0.71
2024-02-01T05:28:12.094Z,-0.69
2024-02-01T05:28:44.144Z,-0.70
2024-02-01T05:29:16.231Z,-0.68
2024-02-01T05:29:48.767Z,-0.69
2024-02-01T05:30:22.672Z,-0.70
2024-02-01T05:30:55.582Z,-0.72
2024-02-01T05:31:27.851Z,-0.72
2024-02-01T05:32:00.024Z,-0.69
2024-02-01T05:32:32.151Z,-0.65
2024-02-01T05:33:04.689Z,-0.60
2024-02-01T05:33:37.231Z,-0.63
2024-02-01T05:34:11.993Z,-0.62
2024-02-01T05:34:46.474Z,-0.59
2024-02-01T05:35:23.104Z,-0.55
2024-02-01T05:35:55.116Z,-0.58
2024-02-01T05:36:27.168Z,-0.55
2024-02-01T05:36:59.177Z,-0.50
2024-02-01T05:37:31.190Z,-0.48
2024-02-01T05:38:03.639Z,-0.43
2024-02-01T05:38:37.494Z,-0.38
2024-02-01T05:39:10.883Z,-0.41
2024-02-01T05:39:42.906Z,-0.49
2024-02-01T05:40:15.276Z,-0.49
2024-02-01T05:40:47.320Z,-0.44
2024-02-01T05:41:19.556Z,-0.42
2024-02-01T05:41:52.872Z,-0.43
2024-02-01T05:42:24.986Z,-0.44
2024-02-01T05:42:57.024Z,-0.44
2024-02-01T05:43:30.130Z,-0.42
2024-02-01T05:44:02.194Z,-0.39
2024-02-01T05:44:34.526Z,-0.38
2024-02-01T05:45:07.627Z,-0.37
2024-02-01T05:45:39.659Z,-0.32
2024-02-01T05:46:11.921Z,-0.30
2024-02-01T05:46:45.343Z,-0.27
2024-02-01T05:47:17.421Z,-0.27
2024-02-01T05:47:49.708Z,-0.28
2024-02-01T05:48:21.965Z,-0.29
2024-02-01T05:48:55.288Z,-0.28
2024-02-01T05:49:29.644Z,-0.30
2024-02-01T05:50:02.197Z,-0.30
2024-02-01T05:50:34.484Z,-0.28
2024-02-01T05:51:06.824Z,-0.30
2024-02-01T05:51:38.915Z,-0.26
2024-02-01T05:52:10.999Z,-0.28
2024-02-01T05:52:43.310Z,-0.27
2024-02-01T05:53:15.754Z,-0.29
2024-02-01T05:53:47.899Z,-0.31
2024-02-01T05:54:21.962Z,-0.31
2024-02-01T05:54:54.151Z,-0.30
2024-02-01T05:55:26.202Z,-0.32
2024-02-01T05:55:58.208Z,-0.32
2024-02-01T05:56:30.236Z,-0.31
2024-02-01T05:57:02.485Z,-0.34
2024-02-01T05:57:35.296Z,-0.34
2024-02-01T05:58:07.472Z,-0.33
2024-02-01T05:58:39.471Z,-0.34
2024-02-01T05:59:13.056Z,-0.32
2024-02-01T05:59:45.146Z,-0.32
2024-02-01T06:00:18.063Z,-0.33
2024-02-01T06:00:50.447Z,-0.32
2024-02-01T06:01:22.585Z,-0.32
2024-02-01T06:01:54.697Z,-0.34
2024-02-01T06:02:27.137Z,-0.32
2024-02-01T06:02:59.240Z,-0.28
2024-02-01T06:03:31.424Z,-0.29
2024-02-01T06:04:03.749Z,-0.28
2024-02-01T06:04:36.067Z,-0.28
2024-02-01T06:05:08.681Z,-0.28
2024-02-01T06:05:40.829Z,-0.26
2024-02-01T06:06:12.935Z,-0.23
2024-02-01T06:06:46.095Z,-0.21
2024-02-01T06:07:18.299Z,-0.19
2024-02-01T06:07:50.390Z,-0.18
2024-02-01T06:08:22.368Z,-0.16
2024-02-01T06:08:54.711Z,-0.17
2024-02-01T06:09:28.217Z,-0.18
2024-02-01T06:10:00.314Z,-0.19
2024-02-01T06:10:32.437Z,-0.24
2024-02-01T06:11:04.778Z,-0.33
2024-02-01T06:11:37.403Z,-0.39
2024-02-01T06:12:09.628Z,-0.43
2024-02-01T06:12:41.593Z,-0.42
2024-02-01T06:13:13.835Z,-0.38
2024-02-01T06:13:46.014Z,-0.35
2024-02-01T06:14:18.404Z,-0.34
2024-02-01T06:14:50.613Z,-0.34
2024-02-01T06:15:22.853Z,-0.32
2024-02-01T06:15:55.014Z,-0.32
2024-02-01T06:16:27.080Z,-0.32
2024-02-01T06:16:59.183Z,-0.32
2024-02-01T06:17:31.258Z,-0.32
2024-02-01T06:18:03.970Z,-0.33
2024-02-01T06:18:36.271Z,-0.34
2024-02-01T06:19:08.674Z,-0.30
2024-02-01T06:19:41.435Z,-0.30
2024-02-01T06:20:13.922Z,-0.31
2024-02-01T06:20:46.000Z,-0.31
2024-02-01T06:21:18.605Z,-0.26
2024-02-01T06:21:52.284Z,-0.26
2024-02-01T06:22:26.212Z,-0.21
2024-02-01T06:22:58.284Z,-0.19
2024-02-01T06:23:30.572Z,-0.20
2024-02-01T06:24:02.777Z,-0.22
2024-02-01T06:24:36.502Z,-0.20
2024-02-01T06:25:09.878Z,-0.16
2024-02-01T06:25:42.058Z,-0.13
2024-02-01T06:26:21.008Z,-0.11
2024-02-01T06:26:53.503Z,-0.09
2024-02-01T06:27:26.027Z,-0.08
2024-02-01T06:27:59.036Z,-0.09
2024-02-01T06:28:32.041Z,-0.07
2024-02-01T06:29:04.152Z,-0.06
2024-02-01T06:29:36.216Z,-0.08
2024-02-01T06:30:09.275Z,-0.09
2024-02-01T06:30:41.401Z,-0.07
2024-02-01T06:31:13.510Z,-0.05
2024-02-01T06:31:46.248Z,-0.02
2024-02-01T06:32:18.420Z,0.02
2024-02-01T06:32:50.567Z,0.02
2024-02-01T06:33:22.785Z,0.07
2024-02-01T06:33:55.321Z,0.12
2024-02-01T06:34:27.478Z,0.15
2024-02-01T06:35:00.402Z,0.15
2024-02-01T06:35:32.831Z,0.15
2024-02-01T06:36:05.687Z,0.16
2024-02-01T06:36:38.877Z,0.13
2024-02-01T06:37:10.898Z,0.14
2024-02-01T06:37:42.999Z,0.13
2024-02-01T06:38:15.264Z,0.18
2024-02-01T06:38:47.628Z,0.23
2024-02-01T06:39:19.785Z,0.24
2024-02-01T06:39:54.238Z,0.25
2024-02-01T06:40:27.103Z,0.25
2024-02-01T06:40:59.252Z,0.24
2024-02-01T06:41:32.489Z,0.26
2024-02-01T06:42:05.165Z,0.29
2024-02-01T06:42:40.191Z,0.29
2024-02-01T06:43:12.248Z,0.33
2024-02-01T06:43:44.819Z,0.32
2024-02-01T06:44:18.040Z,0.35
2024-02-01T06:44:50.308Z,0.33
2024-02-01T06:45:23.118Z,0.21
2024-02-01T06:45:55.299Z,0.23
2024-02-01T06:46:27.469Z,0.25
2024-02-01T06:47:00.115Z,0.32
2024-02-01T06:47:32.216Z,0.37
2024-02-01T06:48:05.100Z,0.40
2024-02-01T06:48:37.477Z,0.43
2024-02-01T06:49:09.702Z,0.42
2024-02-01T06:49:43.736Z,0.43
2024-02-01T06:50:19.323Z,0.40
2024-02-01T06:50:51.418Z,0.35
2024-02-01T06:51:24.069Z,0.36
2024-02-01T06:51:56.352Z,0.30
2024-02-01T06:52:29.606Z,0.28
2024-02-01T06:53:01.715Z,0.29
2024-02-01T06:53:34.009Z,0.33
2024-02-01T06:54:06.222Z,0.36
2024-02-01T06:54:38.449Z,0.40
2024-02-01T06:55:12.368Z,0.40
2024-02-01T06:55:44.537Z,0.41
2024-02-01T06:56:16.793Z,0.46
2024-02-01T06:56:49.042Z,0.48
2024-02-01T06:57:21.383Z,0.48
2024-02-01T06:57:53.505Z,0.50
2024-02-01T06:58:25.630Z,0.48
2024-02-01T06:58:57.639Z,0.49
2024-02-01T06:59:29.691Z,0.47
2024-02-01T07:00:02.250Z,0.51
2024-02-01T07:00:34.593Z,0.49
2024-02-01T07:01:08.200Z,0.52
2024-02-01T07:01:40.333Z,0.57
2024-02-01T07:02:12.541Z,0.59
2024-02-01T07:02:44.669Z,0.55